sensor_id;sensor_type;location;lat;lon;timestamp;P1;durP1;ratioP1;P2;durP2;ratioP2
19848;SDS011;10085;51.120;6.956;2023-04-25T00:04:48;2.60;;;2.13;;
19848;SDS011;10085;51.120;6.956;2023-04-25T00:09:51;3.13;;;2.30;;
19848;SDS011;10085;51.120;6.956;2023-04-25T00:14:54;3.25;;;2.22;;
19848;SDS011;10085;51.120;6.956;2023-04-25T00:19:59;2.90;;;2.58;;
19848;SDS011;10085;51.120;6.956;2023-04-25T00:25:06;4.93;;;2.40;;
19848;SDS011;10085;51.120;6.956;2023-04-25T00:30:10;3.15;;;2.40;;
19848;SDS011;10085;51.120;6.956;2023-04-25T00:35:15;2.85;;;2.22;;
19848;SDS011;10085;51.120;6.956;2023-04-25T00:40:18;2.90;;;2.30;;
19848;SDS011;10085;51.120;6.956;2023-04-25T00:45:20;3.50;;;2.28;;
19848;SDS011;10085;51.120;6.956;2023-04-25T00:50:25;3.47;;;2.30;;
19848;SDS011;10085;51.120;6.956;2023-04-25T00:55:28;4.13;;;2.63;;
19848;SDS011;10085;51.120;6.956;2023-04-25T01:00:31;5.03;;;2.47;;
19848;SDS011;10085;51.120;6.956;2023-04-25T01:05:35;5.00;;;2.17;;
19848;SDS011;10085;51.120;6.956;2023-04-25T01:10:38;5.75;;;2.33;;
19848;SDS011;10085;51.120;6.956;2023-04-25T01:15:42;3.53;;;2.40;;
19848;SDS011;10085;51.120;6.956;2023-04-25T01:20:46;3.25;;;2.40;;
19848;SDS011;10085;51.120;6.956;2023-04-25T01:25:51;5.15;;;2.28;;
19848;SDS011;10085;51.120;6.956;2023-04-25T01:30:54;4.57;;;2.40;;
19848;SDS011;10085;51.120;6.956;2023-04-25T01:35:57;5.07;;;2.53;;
19848;SDS011;10085;51.120;6.956;2023-04-25T01:41:01;4.20;;;2.53;;
19848;SDS011;10085;51.120;6.956;2023-04-25T01:46:04;4.60;;;2.80;;
19848;SDS011;10085;51.120;6.956;2023-04-25T01:51:07;2.88;;;2.33;;
19848;SDS011;10085;51.120;6.956;2023-04-25T01:56:11;4.22;;;2.50;;
19848;SDS011;10085;51.120;6.956;2023-04-25T02:01:14;4.70;;;2.35;;
19848;SDS011;10085;51.120;6.956;2023-04-25T02:06:24;5.22;;;2.30;;
19848;SDS011;10085;51.120;6.956;2023-04-25T02:11:31;3.97;;;2.28;;
19848;SDS011;10085;51.120;6.956;2023-04-25T02:16:54;4.80;;;2.40;;
19848;SDS011;10085;51.120;6.956;2023-04-25T02:21:58;5.25;;;2.70;;
19848;SDS011;10085;51.120;6.956;2023-04-25T02:27:03;3.60;;;2.55;;
19848;SDS011;10085;51.120;6.956;2023-04-25T02:32:06;5.97;;;2.47;;
19848;SDS011;10085;51.120;6.956;2023-04-25T02:37:08;6.22;;;2.60;;
19848;SDS011;10085;51.120;6.956;2023-04-25T02:42:13;4.55;;;2.47;;
19848;SDS011;10085;51.120;6.956;2023-04-25T02:47:15;5.45;;;2.88;;
19848;SDS011;10085;51.120;6.956;2023-04-25T02:52:18;3.33;;;2.42;;
19848;SDS011;10085;51.120;6.956;2023-04-25T02:57:31;6.03;;;2.55;;
19848;SDS011;10085;51.120;6.956;2023-04-25T03:02:34;5.65;;;2.53;;
19848;SDS011;10085;51.120;6.956;2023-04-25T03:07:37;5.00;;;2.50;;
19848;SDS011;10085;51.120;6.956;2023-04-25T03:12:44;3.83;;;2.58;;
19848;SDS011;10085;51.120;6.956;2023-04-25T03:17:47;4.93;;;2.60;;
19848;SDS011;10085;51.120;6.956;2023-04-25T03:22:49;2.85;;;2.20;;
19848;SDS011;10085;51.120;6.956;2023-04-25T03:27:54;3.60;;;2.30;;
19848;SDS011;10085;51.120;6.956;2023-04-25T03:32:56;3.70;;;2.20;;
19848;SDS011;10085;51.120;6.956;2023-04-25T03:37:59;3.45;;;2.40;;
19848;SDS011;10085;51.120;6.956;2023-04-25T03:43:08;4.80;;;2.55;;
19848;SDS011;10085;51.120;6.956;2023-04-25T03:48:16;4.50;;;2.67;;
19848;SDS011;10085;51.120;6.956;2023-04-25T03:53:19;5.15;;;2.63;;
19848;SDS011;10085;51.120;6.956;2023-04-25T03:58:47;4.90;;;2.60;;
19848;SDS011;10085;51.120;6.956;2023-04-25T04:03:52;4.40;;;2.17;;
19848;SDS011;10085;51.120;6.956;2023-04-25T04:08:56;4.93;;;2.50;;
19848;SDS011;10085;51.120;6.956;2023-04-25T04:14:00;4.35;;;2.70;;
19848;SDS011;10085;51.120;6.956;2023-04-25T04:19:04;3.38;;;2.40;;
19848;SDS011;10085;51.120;6.956;2023-04-25T04:24:08;5.25;;;2.65;;
19848;SDS011;10085;51.120;6.956;2023-04-25T04:29:36;4.47;;;2.58;;
19848;SDS011;10085;51.120;6.956;2023-04-25T04:34:45;5.45;;;2.58;;
19848;SDS011;10085;51.120;6.956;2023-04-25T04:39:50;3.72;;;2.45;;
19848;SDS011;10085;51.120;6.956;2023-04-25T04:45:14;5.03;;;2.45;;
19848;SDS011;10085;51.120;6.956;2023-04-25T04:50:29;4.35;;;2.53;;
19848;SDS011;10085;51.120;6.956;2023-04-25T04:55:42;3.80;;;2.33;;
19848;SDS011;10085;51.120;6.956;2023-04-25T05:01:05;2.90;;;2.30;;
19848;SDS011;10085;51.120;6.956;2023-04-25T05:06:44;3.70;;;2.22;;
19848;SDS011;10085;51.120;6.956;2023-04-25T05:11:49;2.92;;;2.30;;
19848;SDS011;10085;51.120;6.956;2023-04-25T05:17:05;3.75;;;2.30;;
19848;SDS011;10085;51.120;6.956;2023-04-25T05:22:31;6.43;;;2.72;;
19848;SDS011;10085;51.120;6.956;2023-04-25T05:27:54;3.67;;;2.25;;
19848;SDS011;10085;51.120;6.956;2023-04-25T05:33:34;4.20;;;2.60;;
19848;SDS011;10085;51.120;6.956;2023-04-25T05:38:37;3.30;;;2.15;;
19848;SDS011;10085;51.120;6.956;2023-04-25T05:43:55;4.75;;;2.70;;
19848;SDS011;10085;51.120;6.956;2023-04-25T05:49:05;3.15;;;2.35;;
19848;SDS011;10085;51.120;6.956;2023-04-25T05:54:31;4.57;;;2.65;;
19848;SDS011;10085;51.120;6.956;2023-04-25T05:59:34;2.80;;;2.17;;
19848;SDS011;10085;51.120;6.956;2023-04-25T06:04:38;5.80;;;2.42;;
19848;SDS011;10085;51.120;6.956;2023-04-25T06:09:42;5.63;;;2.63;;
19848;SDS011;10085;51.120;6.956;2023-04-25T06:14:45;4.03;;;2.55;;
19848;SDS011;10085;51.120;6.956;2023-04-25T06:19:50;4.38;;;2.50;;
19848;SDS011;10085;51.120;6.956;2023-04-25T06:24:53;5.47;;;2.17;;
19848;SDS011;10085;51.120;6.956;2023-04-25T06:29:58;4.05;;;2.55;;
19848;SDS011;10085;51.120;6.956;2023-04-25T06:35:04;3.63;;;2.33;;
19848;SDS011;10085;51.120;6.956;2023-04-25T06:40:08;5.25;;;2.25;;
19848;SDS011;10085;51.120;6.956;2023-04-25T06:45:11;5.18;;;2.55;;
19848;SDS011;10085;51.120;6.956;2023-04-25T06:50:16;4.70;;;2.53;;
19848;SDS011;10085;51.120;6.956;2023-04-25T06:55:19;3.08;;;2.30;;
19848;SDS011;10085;51.120;6.956;2023-04-25T07:00:41;5.55;;;2.80;;
19848;SDS011;10085;51.120;6.956;2023-04-25T07:05:45;5.18;;;2.63;;
19848;SDS011;10085;51.120;6.956;2023-04-25T07:10:48;4.53;;;2.40;;
19848;SDS011;10085;51.120;6.956;2023-04-25T07:15:51;4.80;;;2.58;;
19848;SDS011;10085;51.120;6.956;2023-04-25T07:21:00;3.83;;;2.10;;
19848;SDS011;10085;51.120;6.956;2023-04-25T07:26:03;5.05;;;2.38;;
19848;SDS011;10085;51.120;6.956;2023-04-25T07:31:06;2.70;;;2.10;;
19848;SDS011;10085;51.120;6.956;2023-04-25T07:36:10;4.97;;;2.42;;
19848;SDS011;10085;51.120;6.956;2023-04-25T07:41:13;3.22;;;2.20;;
19848;SDS011;10085;51.120;6.956;2023-04-25T07:46:16;3.80;;;2.22;;
19848;SDS011;10085;51.120;6.956;2023-04-25T07:51:21;4.32;;;2.30;;
19848;SDS011;10085;51.120;6.956;2023-04-25T07:56:26;4.90;;;2.35;;
19848;SDS011;10085;51.120;6.956;2023-04-25T08:01:39;4.57;;;2.38;;
19848;SDS011;10085;51.120;6.956;2023-04-25T08:06:45;5.43;;;2.22;;
19848;SDS011;10085;51.120;6.956;2023-04-25T08:11:54;4.22;;;2.60;;
19848;SDS011;10085;51.120;6.956;2023-04-25T08:17:02;6.45;;;2.78;;
19848;SDS011;10085;51.120;6.956;2023-04-25T08:29:16;8.18;;;3.65;;
19848;SDS011;10085;51.120;6.956;2023-04-25T08:34:20;6.93;;;3.95;;
19848;SDS011;10085;51.120;6.956;2023-04-25T08:39:24;5.78;;;3.97;;
19848;SDS011;10085;51.120;6.956;2023-04-25T08:44:54;5.70;;;3.70;;
19848;SDS011;10085;51.120;6.956;2023-04-25T08:50:02;6.45;;;3.92;;
19848;SDS011;10085;51.120;6.956;2023-04-25T08:55:07;5.82;;;3.70;;
19848;SDS011;10085;51.120;6.956;2023-04-25T09:00:15;6.55;;;3.65;;
19848;SDS011;10085;51.120;6.956;2023-04-25T09:05:20;6.47;;;4.15;;
19848;SDS011;10085;51.120;6.956;2023-04-25T09:10:26;6.88;;;3.88;;
19848;SDS011;10085;51.120;6.956;2023-04-25T09:15:32;6.22;;;3.85;;
19848;SDS011;10085;51.120;6.956;2023-04-25T09:20:47;5.97;;;3.80;;
19848;SDS011;10085;51.120;6.956;2023-04-25T09:25:53;5.50;;;3.85;;
19848;SDS011;10085;51.120;6.956;2023-04-25T09:30:58;7.30;;;3.80;;
19848;SDS011;10085;51.120;6.956;2023-04-25T09:36:08;9.48;;;4.22;;
19848;SDS011;10085;51.120;6.956;2023-04-25T09:41:22;6.93;;;4.10;;
19848;SDS011;10085;51.120;6.956;2023-04-25T09:46:33;6.65;;;4.22;;
19848;SDS011;10085;51.120;6.956;2023-04-25T09:51:40;8.05;;;3.95;;
19848;SDS011;10085;51.120;6.956;2023-04-25T09:56:44;6.18;;;3.80;;
19848;SDS011;10085;51.120;6.956;2023-04-25T10:01:51;5.97;;;3.38;;
19848;SDS011;10085;51.120;6.956;2023-04-25T10:07:03;8.77;;;3.30;;
19848;SDS011;10085;51.120;6.956;2023-04-25T10:12:09;7.22;;;3.60;;
19848;SDS011;10085;51.120;6.956;2023-04-25T10:17:13;8.35;;;4.15;;
19848;SDS011;10085;51.120;6.956;2023-04-25T10:22:17;7.00;;;3.78;;
19848;SDS011;10085;51.120;6.956;2023-04-25T10:27:21;8.68;;;3.38;;
19848;SDS011;10085;51.120;6.956;2023-04-25T10:32:25;8.07;;;3.70;;
19848;SDS011;10085;51.120;6.956;2023-04-25T10:37:31;7.47;;;3.33;;
19848;SDS011;10085;51.120;6.956;2023-04-25T10:42:34;7.45;;;3.40;;
19848;SDS011;10085;51.120;6.956;2023-04-25T10:47:43;6.50;;;3.60;;
19848;SDS011;10085;51.120;6.956;2023-04-25T10:52:46;7.90;;;3.20;;
19848;SDS011;10085;51.120;6.956;2023-04-25T10:57:49;7.90;;;3.35;;
19848;SDS011;10085;51.120;6.956;2023-04-25T11:02:57;5.95;;;3.33;;
19848;SDS011;10085;51.120;6.956;2023-04-25T11:08:03;8.25;;;3.42;;
19848;SDS011;10085;51.120;6.956;2023-04-25T11:13:13;6.95;;;3.03;;
19848;SDS011;10085;51.120;6.956;2023-04-25T11:18:17;8.43;;;3.30;;
19848;SDS011;10085;51.120;6.956;2023-04-25T11:23:20;5.55;;;3.40;;
19848;SDS011;10085;51.120;6.956;2023-04-25T11:28:23;8.32;;;3.50;;
19848;SDS011;10085;51.120;6.956;2023-04-25T11:33:28;10.95;;;3.70;;
19848;SDS011;10085;51.120;6.956;2023-04-25T11:38:31;6.57;;;3.15;;
19848;SDS011;10085;51.120;6.956;2023-04-25T11:43:34;7.03;;;3.08;;
19848;SDS011;10085;51.120;6.956;2023-04-25T11:48:39;7.32;;;3.13;;
19848;SDS011;10085;51.120;6.956;2023-04-25T11:53:44;9.52;;;3.47;;
19848;SDS011;10085;51.120;6.956;2023-04-25T11:58:53;9.95;;;3.47;;
19848;SDS011;10085;51.120;6.956;2023-04-25T12:03:59;12.30;;;3.67;;
19848;SDS011;10085;51.120;6.956;2023-04-25T12:09:13;9.95;;;3.40;;
19848;SDS011;10085;51.120;6.956;2023-04-25T12:14:22;9.43;;;3.50;;
19848;SDS011;10085;51.120;6.956;2023-04-25T12:19:31;16.92;;;3.45;;
19848;SDS011;10085;51.120;6.956;2023-04-25T12:24:35;12.02;;;3.20;;
19848;SDS011;10085;51.120;6.956;2023-04-25T12:29:40;7.30;;;3.45;;
19848;SDS011;10085;51.120;6.956;2023-04-25T12:34:54;9.45;;;3.05;;
19848;SDS011;10085;51.120;6.956;2023-04-25T12:39:57;7.65;;;2.95;;
19848;SDS011;10085;51.120;6.956;2023-04-25T12:45:00;6.95;;;2.70;;
19848;SDS011;10085;51.120;6.956;2023-04-25T12:50:31;10.57;;;3.33;;
19848;SDS011;10085;51.120;6.956;2023-04-25T12:55:53;8.48;;;3.10;;
19848;SDS011;10085;51.120;6.956;2023-04-25T13:00:57;8.15;;;2.88;;
19848;SDS011;10085;51.120;6.956;2023-04-25T13:06:01;9.63;;;3.05;;
19848;SDS011;10085;51.120;6.956;2023-04-25T13:11:04;8.63;;;2.95;;
19848;SDS011;10085;51.120;6.956;2023-04-25T13:16:07;7.40;;;2.83;;
19848;SDS011;10085;51.120;6.956;2023-04-25T13:21:11;6.38;;;2.95;;
19848;SDS011;10085;51.120;6.956;2023-04-25T13:26:14;5.70;;;2.88;;
19848;SDS011;10085;51.120;6.956;2023-04-25T13:31:18;6.80;;;2.60;;
19848;SDS011;10085;51.120;6.956;2023-04-25T13:36:22;4.05;;;2.50;;
19848;SDS011;10085;51.120;6.956;2023-04-25T13:41:25;6.60;;;2.90;;
19848;SDS011;10085;51.120;6.956;2023-04-25T13:46:28;6.50;;;2.75;;
19848;SDS011;10085;51.120;6.956;2023-04-25T13:57:36;6.68;;;2.70;;
19848;SDS011;10085;51.120;6.956;2023-04-25T14:02:41;4.20;;;2.53;;
19848;SDS011;10085;51.120;6.956;2023-04-25T14:08:10;7.20;;;2.80;;
19848;SDS011;10085;51.120;6.956;2023-04-25T14:13:14;7.13;;;2.55;;
19848;SDS011;10085;51.120;6.956;2023-04-25T14:18:17;7.68;;;2.83;;
19848;SDS011;10085;51.120;6.956;2023-04-25T14:29:23;10.43;;;3.00;;
19848;SDS011;10085;51.120;6.956;2023-04-25T14:34:37;7.32;;;2.55;;
19848;SDS011;10085;51.120;6.956;2023-04-25T14:39:41;13.52;;;2.80;;
19848;SDS011;10085;51.120;6.956;2023-04-25T14:44:48;10.73;;;2.75;;
19848;SDS011;10085;51.120;6.956;2023-04-25T14:49:51;8.00;;;3.20;;
19848;SDS011;10085;51.120;6.956;2023-04-25T14:55:01;5.85;;;2.67;;
19848;SDS011;10085;51.120;6.956;2023-04-25T15:06:17;4.38;;;2.13;;
19848;SDS011;10085;51.120;6.956;2023-04-25T15:11:23;6.82;;;2.20;;
19848;SDS011;10085;51.120;6.956;2023-04-25T15:16:26;6.88;;;2.35;;
19848;SDS011;10085;51.120;6.956;2023-04-25T15:21:30;5.20;;;2.30;;
19848;SDS011;10085;51.120;6.956;2023-04-25T15:26:33;5.00;;;2.05;;
19848;SDS011;10085;51.120;6.956;2023-04-25T15:31:36;4.13;;;2.38;;
19848;SDS011;10085;51.120;6.956;2023-04-25T15:36:41;4.70;;;2.10;;
19848;SDS011;10085;51.120;6.956;2023-04-25T15:41:44;5.53;;;2.35;;
19848;SDS011;10085;51.120;6.956;2023-04-25T15:46:46;8.98;;;2.50;;
19848;SDS011;10085;51.120;6.956;2023-04-25T15:51:50;4.82;;;2.40;;
19848;SDS011;10085;51.120;6.956;2023-04-25T15:56:53;3.20;;;1.88;;
19848;SDS011;10085;51.120;6.956;2023-04-25T16:01:56;6.63;;;2.38;;
19848;SDS011;10085;51.120;6.956;2023-04-25T16:07:01;3.33;;;2.00;;
19848;SDS011;10085;51.120;6.956;2023-04-25T16:12:04;6.20;;;1.80;;
19848;SDS011;10085;51.120;6.956;2023-04-25T16:17:07;7.68;;;1.88;;
19848;SDS011;10085;51.120;6.956;2023-04-25T16:22:19;4.85;;;1.90;;
19848;SDS011;10085;51.120;6.956;2023-04-25T16:27:22;3.00;;;1.70;;
19848;SDS011;10085;51.120;6.956;2023-04-25T16:32:27;4.85;;;1.85;;
19848;SDS011;10085;51.120;6.956;2023-04-25T16:37:32;5.40;;;1.75;;
19848;SDS011;10085;51.120;6.956;2023-04-25T16:42:35;10.75;;;1.65;;
19848;SDS011;10085;51.120;6.956;2023-04-25T16:47:38;7.15;;;1.83;;
19848;SDS011;10085;51.120;6.956;2023-04-25T16:53:07;7.65;;;1.73;;
19848;SDS011;10085;51.120;6.956;2023-04-25T16:58:10;6.20;;;1.95;;
19848;SDS011;10085;51.120;6.956;2023-04-25T17:03:14;4.60;;;1.92;;
19848;SDS011;10085;51.120;6.956;2023-04-25T17:08:18;10.77;;;1.70;;
19848;SDS011;10085;51.120;6.956;2023-04-25T17:13:23;6.32;;;1.73;;
19848;SDS011;10085;51.120;6.956;2023-04-25T17:18:32;3.42;;;1.85;;
19848;SDS011;10085;51.120;6.956;2023-04-25T17:23:37;5.45;;;1.83;;
19848;SDS011;10085;51.120;6.956;2023-04-25T17:28:45;6.10;;;1.75;;
19848;SDS011;10085;51.120;6.956;2023-04-25T17:33:50;5.75;;;1.80;;
19848;SDS011;10085;51.120;6.956;2023-04-25T17:38:54;5.60;;;1.77;;
19848;SDS011;10085;51.120;6.956;2023-04-25T17:44:01;5.43;;;1.60;;
19848;SDS011;10085;51.120;6.956;2023-04-25T17:49:04;3.45;;;1.40;;
19848;SDS011;10085;51.120;6.956;2023-04-25T17:54:08;3.85;;;1.67;;
19848;SDS011;10085;51.120;6.956;2023-04-25T17:59:11;4.30;;;1.90;;
19848;SDS011;10085;51.120;6.956;2023-04-25T18:04:14;2.58;;;1.50;;
19848;SDS011;10085;51.120;6.956;2023-04-25T18:09:19;4.00;;;1.30;;
19848;SDS011;10085;51.120;6.956;2023-04-25T18:14:24;2.60;;;1.50;;
19848;SDS011;10085;51.120;6.956;2023-04-25T18:19:27;1.98;;;1.35;;
19848;SDS011;10085;51.120;6.956;2023-04-25T18:24:31;4.00;;;1.10;;
19848;SDS011;10085;51.120;6.956;2023-04-25T18:29:34;2.63;;;1.20;;
19848;SDS011;10085;51.120;6.956;2023-04-25T18:34:37;1.52;;;1.20;;
19848;SDS011;10085;51.120;6.956;2023-04-25T18:39:43;6.50;;;1.50;;
19848;SDS011;10085;51.120;6.956;2023-04-25T18:51:17;4.97;;;1.35;;
19848;SDS011;10085;51.120;6.956;2023-04-25T18:56:25;3.65;;;1.38;;
19848;SDS011;10085;51.120;6.956;2023-04-25T19:01:34;4.75;;;1.30;;
19848;SDS011;10085;51.120;6.956;2023-04-25T19:12:11;3.10;;;1.40;;
19848;SDS011;10085;51.120;6.956;2023-04-25T19:17:16;4.15;;;1.50;;
19848;SDS011;10085;51.120;6.956;2023-04-25T19:42:29;4.88;;;2.10;;
19848;SDS011;10085;51.120;6.956;2023-04-25T19:47:34;3.63;;;2.55;;
19848;SDS011;10085;51.120;6.956;2023-04-25T19:53:07;4.43;;;2.70;;
19848;SDS011;10085;51.120;6.956;2023-04-25T19:58:10;5.72;;;3.10;;
19848;SDS011;10085;51.120;6.956;2023-04-25T20:03:15;8.48;;;3.17;;
19848;SDS011;10085;51.120;6.956;2023-04-25T20:08:23;3.83;;;3.28;;
19848;SDS011;10085;51.120;6.956;2023-04-25T20:13:26;5.57;;;3.20;;
19848;SDS011;10085;51.120;6.956;2023-04-25T20:18:29;4.20;;;3.20;;
19848;SDS011;10085;51.120;6.956;2023-04-25T20:23:33;4.72;;;3.30;;
19848;SDS011;10085;51.120;6.956;2023-04-25T20:28:37;5.13;;;3.08;;
19848;SDS011;10085;51.120;6.956;2023-04-25T20:33:42;4.72;;;3.17;;
19848;SDS011;10085;51.120;6.956;2023-04-25T20:38:46;3.63;;;3.00;;
19848;SDS011;10085;51.120;6.956;2023-04-25T20:43:49;6.40;;;3.17;;
19848;SDS011;10085;51.120;6.956;2023-04-25T20:48:53;4.20;;;2.60;;
19848;SDS011;10085;51.120;6.956;2023-04-25T20:53:58;2.92;;;2.53;;
19848;SDS011;10085;51.120;6.956;2023-04-25T20:59:05;5.80;;;2.60;;
19848;SDS011;10085;51.120;6.956;2023-04-25T21:04:09;4.03;;;2.30;;
19848;SDS011;10085;51.120;6.956;2023-04-25T21:09:14;2.50;;;2.30;;
19848;SDS011;10085;51.120;6.956;2023-04-25T21:14:19;4.38;;;2.30;;
19848;SDS011;10085;51.120;6.956;2023-04-25T21:19:22;4.15;;;2.40;;
19848;SDS011;10085;51.120;6.956;2023-04-25T21:24:27;5.65;;;2.60;;
19848;SDS011;10085;51.120;6.956;2023-04-25T21:29:31;4.28;;;2.70;;
19848;SDS011;10085;51.120;6.956;2023-04-25T21:34:34;5.22;;;2.25;;
19848;SDS011;10085;51.120;6.956;2023-04-25T21:39:41;3.35;;;2.30;;
19848;SDS011;10085;51.120;6.956;2023-04-25T21:44:45;4.00;;;2.10;;
19848;SDS011;10085;51.120;6.956;2023-04-25T21:49:47;2.83;;;2.22;;
19848;SDS011;10085;51.120;6.956;2023-04-25T21:54:52;2.53;;;2.08;;
19848;SDS011;10085;51.120;6.956;2023-04-25T21:59:55;2.70;;;2.17;;
19848;SDS011;10085;51.120;6.956;2023-04-25T22:04:58;5.47;;;2.10;;
19848;SDS011;10085;51.120;6.956;2023-04-25T22:10:07;4.65;;;2.30;;
19848;SDS011;10085;51.120;6.956;2023-04-25T22:15:11;2.92;;;2.10;;
19848;SDS011;10085;51.120;6.956;2023-04-25T22:20:14;4.50;;;2.13;;
19848;SDS011;10085;51.120;6.956;2023-04-25T22:25:18;4.82;;;2.30;;
19848;SDS011;10085;51.120;6.956;2023-04-25T22:30:22;6.53;;;2.17;;
19848;SDS011;10085;51.120;6.956;2023-04-25T22:35:25;2.88;;;1.80;;
19848;SDS011;10085;51.120;6.956;2023-04-25T22:40:29;3.90;;;2.05;;
19848;SDS011;10085;51.120;6.956;2023-04-25T22:45:32;6.30;;;2.20;;
19848;SDS011;10085;51.120;6.956;2023-04-25T22:50:36;8.20;;;2.15;;
19848;SDS011;10085;51.120;6.956;2023-04-25T22:55:42;5.97;;;2.30;;
19848;SDS011;10085;51.120;6.956;2023-04-25T23:00:45;6.55;;;2.40;;
19848;SDS011;10085;51.120;6.956;2023-04-25T23:05:48;6.97;;;2.60;;
19848;SDS011;10085;51.120;6.956;2023-04-25T23:10:52;6.95;;;2.35;;
19848;SDS011;10085;51.120;6.956;2023-04-25T23:15:55;8.00;;;2.65;;
19848;SDS011;10085;51.120;6.956;2023-04-25T23:20:58;10.40;;;3.17;;
19848;SDS011;10085;51.120;6.956;2023-04-25T23:26:06;4.97;;;2.30;;
19848;SDS011;10085;51.120;6.956;2023-04-25T23:31:09;6.20;;;2.72;;
19848;SDS011;10085;51.120;6.956;2023-04-25T23:36:16;4.80;;;2.33;;
19848;SDS011;10085;51.120;6.956;2023-04-25T23:41:21;8.20;;;2.80;;
19848;SDS011;10085;51.120;6.956;2023-04-25T23:46:25;4.85;;;2.60;;
19848;SDS011;10085;51.120;6.956;2023-04-25T23:51:29;4.78;;;2.30;;
19848;SDS011;10085;51.120;6.956;2023-04-25T23:56:33;4.90;;;2.42;;
